Terminal Aerodrome Forecast
Issued by NWS

Home | Current Version | Previous Version | Text Only | Print | Product List | Glossary On
Versions: 1 2 3 4 5 6 7 8 9 10 11 12 13 14 15
000
FTUS43 KDLH 271957 AAA
TAFHYR
TAF AMD
KHYR 271957Z 2720/2818 05012G25KT P6SM SCT250
     FM280200 08013KT P6SM OVC120
     FM281400 06013KT P6SM BKN250=

USA.gov is the U.S. government's official web portal to all federal, state and local government web resources and services.